Time;durP1;ratioP1;P1;durP2;ratioP2;P2;SDS_P1;SDS_P2;PMS_P1;PMS_P2;Temp;Humidity;BMP_temperature;BMP_pressure;BME280_temperature;BME280_humidity;BME280_pressure;Samples;Min_cycle;Max_cycle;Signal;HPM_P1;HPM_P2
2024/01/13 00:01:39;;;;;;;7.67;5.50;;;;;2.70;102198.00;;;;5041640;28;20244;-68
2024/01/13 00:04:25;;;;;;;10.13;5.80;;;;;2.70;102201.00;;;;5039373;28;20230;-68
2024/01/13 00:07:13;;;;;;;10.70;5.87;;;;;2.70;102195.00;;;;5033325;28;20763;-70
2024/01/13 00:09:59;;;;;;;15.73;6.50;;;;;2.70;102183.00;;;;5037156;28;20228;-69
2024/01/13 00:12:46;;;;;;;9.07;5.60;;;;;2.70;102174.00;;;;5042847;28;20228;-69
2024/01/13 00:15:35;;;;;;;13.37;7.10;;;;;2.60;102178.00;;;;5043751;28;20229;-69
2024/01/13 00:18:21;;;;;;;11.83;7.33;;;;;2.70;102170.00;;;;5037236;28;20232;-67
2024/01/13 00:21:23;;;;;;;9.07;5.53;;;;;2.70;102164.00;;;;5030413;28;20235;-68
2024/01/13 00:24:11;;;;;;;9.67;5.63;;;;;2.70;102173.00;;;;5030444;28;20236;-70
2024/01/13 00:26:58;;;;;;;8.57;6.07;;;;;2.60;102173.00;;;;5039422;28;20235;-71
2024/01/13 00:29:44;;;;;;;10.43;5.83;;;;;2.60;102168.00;;;;5034885;28;20743;-69
2024/01/13 00:32:31;;;;;;;9.30;5.17;;;;;2.60;102162.00;;;;5039962;28;20224;-68
2024/01/13 00:35:17;;;;;;;11.57;6.30;;;;;2.60;102152.00;;;;5028648;28;20601;-69
2024/01/13 00:38:04;;;;;;;17.23;7.27;;;;;2.60;102155.00;;;;5044398;28;20239;-68
2024/01/13 00:40:52;;;;;;;11.73;5.83;;;;;2.60;102157.00;;;;5043294;28;20370;-69
2024/01/13 00:43:38;;;;;;;13.70;6.97;;;;;2.60;102159.00;;;;5032814;28;20238;-68
2024/01/13 00:46:24;;;;;;;9.30;6.63;;;;;2.70;102157.00;;;;5038850;28;20231;-64
2024/01/13 00:49:11;;;;;;;11.43;6.07;;;;;2.60;102156.00;;;;5031800;28;20240;-68
2024/01/13 00:51:57;;;;;;;12.40;5.70;;;;;2.60;102152.00;;;;5036036;28;20228;-70
2024/01/13 00:54:44;;;;;;;12.07;5.67;;;;;2.60;102156.00;;;;5026601;28;20232;-69
2024/01/13 00:57:32;;;;;;;13.47;7.77;;;;;2.60;102151.00;;;;5043934;28;20294;-67
2024/01/13 01:00:18;;;;;;;12.47;7.70;;;;;2.60;102152.00;;;;5041128;28;20378;-68
2024/01/13 01:03:05;;;;;;;12.43;7.60;;;;;2.60;102152.00;;;;5040920;28;20235;-69
2024/01/13 01:05:51;;;;;;;11.43;7.23;;;;;2.60;102147.00;;;;5045570;28;20330;-69
2024/01/13 01:08:37;;;;;;;13.67;6.37;;;;;2.70;102139.00;;;;5041753;28;20237;-68
2024/01/13 01:11:26;;;;;;;13.97;7.47;;;;;2.70;102151.00;;;;5043025;28;20760;-71
2024/01/13 01:14:14;;;;;;;16.40;7.80;;;;;2.60;102148.00;;;;5038482;28;20924;-68
2024/01/13 01:17:00;;;;;;;13.13;6.73;;;;;2.70;102146.00;;;;5034513;28;20351;-68
2024/01/13 01:19:47;;;;;;;14.40;8.33;;;;;2.70;102145.00;;;;5044823;28;20231;-71
2024/01/13 01:22:33;;;;;;;12.40;7.43;;;;;2.60;102142.00;;;;5044596;28;20244;-68
2024/01/13 01:25:19;;;;;;;11.50;7.87;;;;;2.60;102130.00;;;;5039572;28;20233;-67
2024/01/13 01:28:06;;;;;;;15.93;8.50;;;;;2.60;102128.00;;;;5038757;28;20355;-67
2024/01/13 01:30:54;;;;;;;12.70;8.37;;;;;2.70;102126.00;;;;5027461;28;20247;-70
2024/01/13 01:33:40;;;;;;;16.57;7.97;;;;;2.70;102128.00;;;;5036394;28;20709;-67
2024/01/13 01:36:27;;;;;;;14.53;7.87;;;;;2.70;102117.00;;;;5037059;28;20229;-68
2024/01/13 01:39:13;;;;;;;14.53;8.27;;;;;2.70;102133.00;;;;5037990;28;20233;-68
2024/01/13 01:42:00;;;;;;;16.20;8.00;;;;;2.70;102122.00;;;;5045539;28;20367;-71
2024/01/13 01:44:46;;;;;;;12.40;7.90;;;;;2.70;102112.00;;;;5040747;28;20702;-67
2024/01/13 01:47:35;;;;;;;17.50;8.50;;;;;2.70;102113.00;;;;5042790;28;20221;-69
2024/01/13 01:50:22;;;;;;;16.70;8.57;;;;;2.70;102102.00;;;;5031824;28;20244;-68
2024/01/13 01:53:08;;;;;;;15.77;8.23;;;;;2.70;102102.00;;;;5047657;28;20229;-69
2024/01/13 01:55:55;;;;;;;11.83;8.77;;;;;2.70;102096.00;;;;5045311;28;20295;-67
2024/01/13 01:58:42;;;;;;;14.40;8.33;;;;;2.70;102095.00;;;;5043178;28;20238;-69
2024/01/13 02:01:30;;;;;;;16.37;7.23;;;;;2.70;102091.00;;;;5045478;28;20602;-64
2024/01/13 02:04:18;;;;;;;15.60;8.37;;;;;2.70;102087.00;;;;5041346;28;20244;-67
2024/01/13 02:07:06;;;;;;;15.60;8.50;;;;;2.70;102086.00;;;;5044556;28;20246;-69
2024/01/13 02:09:52;;;;;;;15.57;7.87;;;;;2.70;102083.00;;;;5040832;28;20266;-67
2024/01/13 02:12:38;;;;;;;14.57;8.47;;;;;2.70;102091.00;;;;5042955;28;20232;-68
2024/01/13 02:15:25;;;;;;;17.27;7.83;;;;;2.70;102084.00;;;;5045870;28;20235;-68
2024/01/13 02:18:11;;;;;;;15.87;8.37;;;;;2.70;102083.00;;;;5042155;28;21033;-69
2024/01/13 02:21:14;;;;;;;13.60;7.33;;;;;2.70;102079.00;;;;5039201;28;20228;-69
2024/01/13 02:24:04;;;;;;;12.13;7.80;;;;;2.70;102080.00;;;;5038972;28;20240;-69
2024/01/13 02:26:50;;;;;;;14.67;8.07;;;;;2.70;102067.00;;;;5043901;28;20237;-70
2024/01/13 02:29:36;;;;;;;13.90;7.13;;;;;2.70;102068.00;;;;5034661;28;20245;-68
2024/01/13 02:32:23;;;;;;;11.33;6.30;;;;;2.70;102061.00;;;;5034103;28;20615;-67
2024/01/13 02:35:09;;;;;;;12.77;7.57;;;;;2.70;102067.00;;;;5036342;28;20244;-68
2024/01/13 02:37:56;;;;;;;9.80;6.20;;;;;2.70;102061.00;;;;5042162;28;20238;-71
2024/01/13 02:40:43;;;;;;;12.60;7.97;;;;;2.60;102053.00;;;;5045999;28;20242;-68
2024/01/13 02:43:30;;;;;;;11.93;7.43;;;;;2.70;102042.00;;;;5042988;28;20242;-69
2024/01/13 02:46:16;;;;;;;18.53;7.40;;;;;2.70;102037.00;;;;5038350;28;20279;-68
2024/01/13 02:49:03;;;;;;;11.43;6.67;;;;;2.70;102040.00;;;;5043454;28;20268;-67
2024/01/13 02:51:49;;;;;;;9.93;6.50;;;;;2.60;102031.00;;;;5041642;28;20227;-71
2024/01/13 02:54:35;;;;;;;12.47;7.33;;;;;2.70;102025.00;;;;5035723;28;20228;-68
2024/01/13 02:57:23;;;;;;;11.37;6.53;;;;;2.70;102025.00;;;;5040044;28;20286;-70
2024/01/13 03:00:10;;;;;;;11.87;7.40;;;;;2.70;102024.00;;;;5035408;28;20356;-67
2024/01/13 03:02:56;;;;;;;10.33;6.17;;;;;2.70;102016.00;;;;5036625;28;20702;-70
2024/01/13 03:05:42;;;;;;;9.03;5.87;;;;;2.70;102010.00;;;;5038378;28;20231;-68
2024/01/13 03:08:29;;;;;;;13.90;8.07;;;;;2.70;102011.00;;;;5036912;28;20722;-69
2024/01/13 03:11:25;;;;;;;13.07;7.63;;;;;2.70;101999.00;;;;5038372;28;20229;-68
2024/01/13 03:14:14;;;;;;;14.50;6.87;;;;;2.70;101995.00;;;;5025730;28;20394;-69
2024/01/13 03:17:01;;;;;;;8.53;6.83;;;;;2.70;101980.00;;;;5044741;28;20788;-68
2024/01/13 03:19:47;;;;;;;13.97;8.30;;;;;2.70;101989.00;;;;5031657;28;20240;-68
2024/01/13 03:22:34;;;;;;;9.10;6.00;;;;;2.70;101987.00;;;;5040309;28;20666;-68
2024/01/13 03:25:20;;;;;;;14.23;7.30;;;;;2.70;101988.00;;;;5037748;28;20279;-67
2024/01/13 03:28:06;;;;;;;9.73;7.53;;;;;2.70;101979.00;;;;5041688;28;21036;-69
2024/01/13 03:30:54;;;;;;;13.17;7.23;;;;;2.70;101981.00;;;;5043350;28;20300;-69
2024/01/13 03:33:41;;;;;;;13.23;7.13;;;;;2.70;101972.00;;;;5040163;28;20611;-68
2024/01/13 03:36:28;;;;;;;8.60;6.13;;;;;2.70;101966.00;;;;5039280;28;20233;-69
2024/01/13 03:39:14;;;;;;;11.43;6.33;;;;;2.70;101961.00;;;;5035556;28;20243;-70
2024/01/13 03:42:01;;;;;;;10.23;6.60;;;;;2.70;101958.00;;;;5037549;28;20228;-68
2024/01/13 03:44:47;;;;;;;13.93;7.87;;;;;2.70;101959.00;;;;5040831;28;20248;-68
2024/01/13 03:47:35;;;;;;;12.77;7.50;;;;;2.70;101954.00;;;;5038336;28;20258;-67
2024/01/13 03:50:21;;;;;;;10.87;6.80;;;;;2.70;101943.00;;;;5038343;28;20306;-68
2024/01/13 03:53:07;;;;;;;10.97;6.30;;;;;2.70;101941.00;;;;5043344;28;20232;-68
2024/01/13 03:55:54;;;;;;;10.53;7.27;;;;;2.70;101947.00;;;;5044368;28;20298;-68
2024/01/13 03:58:40;;;;;;;12.73;8.10;;;;;2.70;101947.00;;;;5044048;28;20240;-69
2024/01/13 04:01:26;;;;;;;11.30;6.60;;;;;2.70;101939.00;;;;5038142;28;20737;-66
2024/01/13 04:04:14;;;;;;;13.47;8.07;;;;;2.70;101940.00;;;;5042256;28;20260;-68
2024/01/13 04:07:01;;;;;;;11.07;6.70;;;;;2.70;101939.00;;;;5041604;28;20230;-69
2024/01/13 04:09:47;;;;;;;12.87;7.53;;;;;2.80;101936.00;;;;5038147;28;20245;-68
2024/01/13 04:12:33;;;;;;;11.93;7.17;;;;;2.80;101937.00;;;;5039614;28;20324;-67
2024/01/13 04:15:20;;;;;;;12.27;7.23;;;;;2.80;101940.00;;;;5041193;28;20232;-66
2024/01/13 04:18:07;;;;;;;11.60;7.67;;;;;2.80;101942.00;;;;5041140;28;20234;-69
2024/01/13 04:20:55;;;;;;;14.97;7.20;;;;;2.80;101934.00;;;;5040625;28;20245;-68
2024/01/13 04:23:58;;;;;;;11.80;7.13;;;;;2.80;101938.00;;;;5035853;28;20610;-68
2024/01/13 04:26:46;;;;;;;14.40;8.00;;;;;2.70;101930.00;;;;5039217;28;20342;-69
2024/01/13 04:29:32;;;;;;;20.27;8.27;;;;;2.70;101916.00;;;;5040505;28;20305;-69
2024/01/13 04:32:19;;;;;;;16.33;7.77;;;;;2.70;101912.00;;;;5040334;28;20228;-69
2024/01/13 04:35:06;;;;;;;12.57;7.50;;;;;2.70;101920.00;;;;5046109;28;20362;-70
2024/01/13 04:37:54;;;;;;;20.30;8.80;;;;;2.70;101919.00;;;;5046308;28;20244;-69
2024/01/13 04:40:40;;;;;;;12.20;6.90;;;;;2.70;101920.00;;;;5044154;28;20233;-69
2024/01/13 04:43:26;;;;;;;17.47;9.00;;;;;2.70;101929.00;;;;5047790;28;20239;-68
2024/01/13 04:46:13;;;;;;;17.27;7.90;;;;;2.70;101929.00;;;;5036884;28;20869;-69
2024/01/13 04:49:00;;;;;;;15.43;8.07;;;;;2.70;101926.00;;;;5041123;28;20687;-68
2024/01/13 04:51:46;;;;;;;13.93;8.17;;;;;2.70;101923.00;;;;5036393;28;20297;-68
2024/01/13 04:54:34;;;;;;;11.67;7.27;;;;;2.70;101908.00;;;;5045805;28;20232;-67
2024/01/13 04:57:21;;;;;;;12.60;7.23;;;;;2.70;101894.00;;;;5036430;28;20231;-68
2024/01/13 05:00:08;;;;;;;12.33;7.97;;;;;2.70;101896.00;;;;5047376;28;20284;-67
2024/01/13 05:02:54;;;;;;;17.03;8.57;;;;;2.70;101895.00;;;;5038638;28;20236;-69
2024/01/13 05:05:43;;;;;;;10.60;7.03;;;;;2.70;101890.00;;;;5042837;28;20237;-67
2024/01/13 05:08:29;;;;;;;14.20;8.40;;;;;2.70;101893.00;;;;5040620;28;20247;-67
2024/01/13 05:11:19;;;;;;;12.63;6.90;;;;;2.70;101898.00;;;;5036718;28;20228;-71
2024/01/13 05:14:05;;;;;;;16.23;7.40;;;;;2.70;101899.00;;;;5043909;28;20757;-68
2024/01/13 05:16:52;;;;;;;13.03;7.37;;;;;2.70;101893.00;;;;5036060;28;20232;-68
2024/01/13 05:19:38;;;;;;;13.53;7.87;;;;;2.70;101887.00;;;;5047447;28;20875;-67
2024/01/13 05:22:25;;;;;;;8.83;6.30;;;;;2.70;101894.00;;;;5040521;28;20811;-68
2024/01/13 05:25:11;;;;;;;10.33;6.90;;;;;2.70;101895.00;;;;5034637;28;20233;-67
2024/01/13 05:27:59;;;;;;;10.13;6.73;;;;;2.70;101897.00;;;;5041097;28;20295;-68
2024/01/13 05:30:46;;;;;;;12.67;6.87;;;;;2.70;101897.00;;;;5046372;28;20232;-69
2024/01/13 05:33:32;;;;;;;10.50;6.97;;;;;2.70;101901.00;;;;5035349;28;20291;-67
2024/01/13 05:36:21;;;;;;;9.53;6.03;;;;;2.70;101883.00;;;;5040059;28;20318;-66
2024/01/13 05:39:07;;;;;;;12.00;6.47;;;;;2.70;101894.00;;;;5040238;28;20232;-69
2024/01/13 05:41:53;;;;;;;8.27;5.53;;;;;2.70;101892.00;;;;5047525;28;20613;-71
2024/01/13 05:44:41;;;;;;;10.63;7.57;;;;;2.80;101899.00;;;;5037412;28;20290;-69
2024/01/13 05:47:27;;;;;;;14.60;6.80;;;;;2.70;101900.00;;;;5046294;28;20233;-70
2024/01/13 05:50:14;;;;;;;11.03;6.47;;;;;2.80;101881.00;;;;5037794;28;20310;-65
2024/01/13 05:53:01;;;;;;;12.63;7.10;;;;;2.80;101887.00;;;;5044175;28;20224;-65
2024/01/13 05:55:48;;;;;;;9.37;6.43;;;;;2.80;101883.00;;;;5042342;28;20287;-68
2024/01/13 05:58:34;;;;;;;10.20;6.63;;;;;2.80;101884.00;;;;5043582;28;20228;-68
2024/01/13 06:01:24;;;;;;;10.67;7.60;;;;;2.80;101878.00;;;;5035508;28;20598;-68
2024/01/13 06:04:10;;;;;;;16.33;7.60;;;;;2.80;101892.00;;;;5039160;28;20248;-70
2024/01/13 06:06:57;;;;;;;12.60;8.00;;;;;2.80;101887.00;;;;5041705;28;20883;-68
2024/01/13 06:09:43;;;;;;;15.47;8.50;;;;;2.80;101876.00;;;;5045566;28;20234;-68
2024/01/13 06:12:30;;;;;;;9.17;6.63;;;;;2.80;101886.00;;;;5046403;28;20351;-66
2024/01/13 06:15:16;;;;;;;14.63;7.40;;;;;2.80;101875.00;;;;5044296;28;20611;-68
2024/01/13 06:18:05;;;;;;;12.37;7.43;;;;;2.80;101863.00;;;;5041811;28;20765;-69
2024/01/13 06:20:51;;;;;;;10.60;6.97;;;;;2.80;101861.00;;;;5044531;28;20237;-69
2024/01/13 06:23:37;;;;;;;12.83;7.40;;;;;2.80;101839.00;;;;5043840;28;20318;-69
2024/01/13 06:26:23;;;;;;;14.47;7.30;;;;;2.80;101825.00;;;;5044167;28;20662;-69
2024/01/13 06:29:10;;;;;;;9.10;6.07;;;;;2.80;101823.00;;;;5044879;28;20266;-67
2024/01/13 06:31:57;;;;;;;14.30;7.90;;;;;2.80;101812.00;;;;5046424;28;20232;-68
2024/01/13 06:34:44;;;;;;;14.50;7.17;;;;;2.90;101810.00;;;;5040397;28;20720;-68
2024/01/13 06:37:30;;;;;;;18.40;8.00;;;;;2.90;101813.00;;;;5045086;28;20314;-69
2024/01/13 06:40:17;;;;;;;15.90;8.93;;;;;2.80;101807.00;;;;5036570;28;20295;-70
2024/01/13 06:43:03;;;;;;;14.50;7.00;;;;;2.80;101801.00;;;;5043789;28;20701;-67
2024/01/13 06:45:49;;;;;;;20.90;8.87;;;;;2.80;101815.00;;;;5042396;28;20314;-69
2024/01/13 06:48:36;;;;;;;12.67;7.67;;;;;2.80;101819.00;;;;5038375;28;20229;-68
2024/01/13 06:51:24;;;;;;;14.00;8.73;;;;;2.80;101823.00;;;;5032104;28;20240;-70
2024/01/13 06:54:10;;;;;;;15.33;8.33;;;;;2.90;101824.00;;;;5039989;28;20229;-68
2024/01/13 06:56:56;;;;;;;13.87;8.67;;;;;2.80;101799.00;;;;5043215;28;20327;-66
2024/01/13 06:59:44;;;;;;;17.97;8.97;;;;;2.80;101808.00;;;;5040062;28;20289;-70
2024/01/13 07:02:30;;;;;;;21.27;9.53;;;;;2.90;101815.00;;;;5040114;28;20237;-71
2024/01/13 07:05:16;;;;;;;14.50;8.23;;;;;2.90;101789.00;;;;5044172;28;20794;-70
2024/01/13 07:08:06;;;;;;;16.80;8.60;;;;;2.90;101805.00;;;;5036422;28;20249;-68
2024/01/13 07:10:54;;;;;;;16.97;9.43;;;;;2.80;101800.00;;;;5038591;28;20306;-67
2024/01/13 07:13:42;;;;;;;17.30;9.20;;;;;2.90;101781.00;;;;5028176;28;20356;-68
2024/01/13 07:16:28;;;;;;;21.17;10.03;;;;;2.90;101750.00;;;;5035843;28;20232;-68
2024/01/13 07:19:15;;;;;;;17.10;8.67;;;;;2.80;101739.00;;;;5044368;28;20387;-70
2024/01/13 07:22:02;;;;;;;12.03;8.47;;;;;2.80;101730.00;;;;5040988;28;20287;-70
2024/01/13 07:24:50;;;;;;;25.23;9.73;;;;;2.80;101718.00;;;;5040459;28;20244;-70
2024/01/13 07:27:36;;;;;;;15.70;9.97;;;;;2.90;101697.00;;;;5031549;28;20221;-70
2024/01/13 07:30:22;;;;;;;19.87;10.17;;;;;2.90;101695.00;;;;5032577;28;20233;-70
2024/01/13 07:33:09;;;;;;;19.97;9.20;;;;;2.90;101711.00;;;;5043087;28;20221;-69
2024/01/13 07:35:56;;;;;;;20.10;8.97;;;;;2.90;101714.00;;;;5044397;28;20244;-71
2024/01/13 07:38:42;;;;;;;21.47;9.90;;;;;2.80;101729.00;;;;5043240;28;20295;-70
2024/01/13 07:41:29;;;;;;;16.00;10.73;;;;;2.80;101736.00;;;;5031654;28;20356;-71
2024/01/13 07:44:16;;;;;;;16.53;9.53;;;;;2.90;101712.00;;;;5038852;28;20303;-69
2024/01/13 07:47:03;;;;;;;16.97;9.07;;;;;2.90;101710.00;;;;5043143;28;20244;-71
2024/01/13 07:49:49;;;;;;;21.93;10.23;;;;;2.90;101714.00;;;;5032723;28;20237;-69
2024/01/13 07:52:35;;;;;;;16.80;10.13;;;;;2.90;101714.00;;;;5034330;28;20299;-69
2024/01/13 07:55:22;;;;;;;20.30;9.30;;;;;2.90;101711.00;;;;5036522;28;20247;-70
2024/01/13 07:58:10;;;;;;;15.67;9.90;;;;;2.90;101713.00;;;;5043167;28;20277;-71
2024/01/13 08:00:56;;;;;;;13.27;9.03;;;;;2.90;101715.00;;;;5043497;28;20598;-70
2024/01/13 08:03:43;;;;;;;15.53;8.70;;;;;2.90;101708.00;;;;5035797;28;20235;-71
2024/01/13 08:06:29;;;;;;;20.90;10.17;;;;;2.90;101698.00;;;;5037420;28;20270;-70
2024/01/13 08:09:17;;;;;;;15.47;9.07;;;;;2.90;101675.00;;;;5034690;28;21107;-71
2024/01/13 08:12:05;;;;;;;17.30;7.73;;;;;2.90;101680.00;;;;5038894;28;20314;-70
2024/01/13 08:14:53;;;;;;;15.00;9.57;;;;;2.90;101667.00;;;;5033337;28;20838;-69
2024/01/13 08:17:39;;;;;;;15.30;8.90;;;;;3.10;101665.00;;;;5039096;28;20719;-73
2024/01/13 09:04:54;;;;;;;15.93;6.63;;;;;3.10;101664.00;;;;5058973;28;20311;-69
2024/01/13 09:07:40;;;;;;;15.07;8.57;;;;;3.20;101655.00;;;;5060418;28;20231;-69
2024/01/13 09:10:27;;;;;;;12.10;7.63;;;;;3.20;101684.00;;;;5062570;28;20235;-70
2024/01/13 09:13:13;;;;;;;16.23;7.10;;;;;3.20;101665.00;;;;5040133;28;20224;-70
2024/01/13 09:15:59;;;;;;;16.43;8.63;;;;;3.30;101678.00;;;;5040568;28;20232;-71
2024/01/13 09:18:46;;;;;;;14.33;7.53;;;;;3.20;101674.00;;;;5043736;28;20251;-71
2024/01/13 09:21:36;;;;;;;13.90;8.43;;;;;3.30;101687.00;;;;5043902;28;20255;-71
2024/01/13 09:24:29;;;;;;;13.67;8.27;;;;;3.20;101672.00;;;;5050200;28;20225;-70
2024/01/13 09:27:16;;;;;;;17.47;10.23;;;;;3.20;101669.00;;;;5045364;28;20269;-70
2024/01/13 09:30:05;;;;;;;13.50;7.13;;;;;3.30;101667.00;;;;5046946;28;20231;-70
2024/01/13 09:32:51;;;;;;;13.57;7.40;;;;;3.20;101676.00;;;;5035624;28;20970;-69
2024/01/13 09:35:40;;;;;;;12.63;7.30;;;;;3.30;101669.00;;;;5042583;28;20239;-70
2024/01/13 09:38:28;;;;;;;25.70;10.87;;;;;3.30;101667.00;;;;5039723;28;20253;-70
2024/01/13 09:41:15;;;;;;;15.20;9.07;;;;;3.40;101678.00;;;;5046360;28;20227;-70
2024/01/13 09:44:20;;;;;;;14.50;8.73;;;;;3.40;101668.00;;;;5037453;28;20762;-70
2024/01/13 09:47:07;;;;;;;13.57;7.57;;;;;3.30;101658.00;;;;5041650;28;20300;-70
2024/01/13 09:49:54;;;;;;;17.53;9.97;;;;;3.40;101657.00;;;;5044907;28;20225;-70
2024/01/13 09:52:41;;;;;;;14.97;8.57;;;;;3.40;101656.00;;;;5044747;28;20727;-72
2024/01/13 09:55:31;;;;;;;13.17;7.30;;;;;3.40;101654.00;;;;5051023;28;20331;-69
2024/01/13 09:58:17;;;;;;;15.63;8.57;;;;;3.40;101651.00;;;;5036526;28;20362;-70
2024/01/13 10:01:07;;;;;;;19.77;9.97;;;;;3.30;101658.00;;;;5035421;28;20228;-71
2024/01/13 10:03:58;;;;;;;21.97;11.13;;;;;3.40;101647.00;;;;5049696;28;20696;-71
2024/01/13 10:06:47;;;;;;;17.70;10.03;;;;;3.40;101642.00;;;;5042840;28;20236;-71
2024/01/13 10:09:34;;;;;;;21.97;11.07;;;;;3.40;101649.00;;;;5046532;28;20247;-70
2024/01/13 10:12:25;;;;;;;16.83;9.83;;;;;3.40;101639.00;;;;5044268;28;20291;-69
2024/01/13 10:15:15;;;;;;;14.23;8.87;;;;;3.40;101649.00;;;;5045319;28;20228;-70
2024/01/13 10:18:02;;;;;;;19.13;10.97;;;;;3.40;101637.00;;;;5047111;28;20302;-71
2024/01/13 10:20:49;;;;;;;22.77;10.57;;;;;3.50;101643.00;;;;5042922;28;20233;-71
2024/01/13 10:23:35;;;;;;;18.47;10.10;;;;;3.40;101644.00;;;;5037402;28;20433;-70
2024/01/13 10:26:22;;;;;;;20.33;10.73;;;;;3.40;101630.00;;;;5038251;28;20253;-70
2024/01/13 10:29:10;;;;;;;18.13;9.70;;;;;3.40;101631.00;;;;5041164;28;20220;-70
2024/01/13 10:31:56;;;;;;;20.60;10.93;;;;;3.40;101621.00;;;;5041696;28;20608;-70
2024/01/13 10:34:46;;;;;;;18.90;10.37;;;;;3.40;101615.00;;;;5039287;28;20267;-70
2024/01/13 10:37:32;;;;;;;18.47;10.60;;;;;3.50;101604.00;;;;5042695;28;20237;-71
2024/01/13 10:40:18;;;;;;;17.63;11.00;;;;;3.50;101603.00;;;;5037617;28;20252;-70
2024/01/13 10:43:07;;;;;;;21.23;11.87;;;;;3.50;101593.00;;;;5046028;28;20232;-71
2024/01/13 10:46:02;;;;;;;18.70;10.03;;;;;3.50;101594.00;;;;5050140;28;20233;-71
2024/01/13 10:48:51;;;;;;;18.60;10.40;;;;;3.40;101588.00;;;;5038669;28;20245;-69
2024/01/13 10:51:43;;;;;;;18.13;10.57;;;;;3.50;101587.00;;;;5038568;28;20232;-69
2024/01/13 10:54:32;;;;;;;17.90;10.17;;;;;3.50;101579.00;;;;5035995;28;20372;-72
2024/01/13 10:57:19;;;;;;;14.90;10.33;;;;;3.40;101573.00;;;;5032354;28;20262;-69
2024/01/13 11:00:10;;;;;;;15.87;10.00;;;;;3.50;101570.00;;;;5040982;28;20236;-70
2024/01/13 11:02:59;;;;;;;14.30;9.03;;;;;3.50;101561.00;;;;5033475;28;20772;-70
2024/01/13 11:05:45;;;;;;;16.70;9.97;;;;;3.60;101562.00;;;;5035141;28;20737;-70
2024/01/13 11:08:32;;;;;;;20.87;9.80;;;;;3.60;101553.00;;;;5041235;28;20604;-70
2024/01/13 11:11:22;;;;;;;14.07;8.67;;;;;3.50;101546.00;;;;5033941;28;20273;-69
2024/01/13 11:14:31;;;;;;;16.00;10.13;;;;;3.50;101538.00;;;;5050732;28;20250;-70
2024/01/13 11:17:18;;;;;;;13.53;8.70;;;;;3.50;101545.00;;;;5039769;28;20307;-70
2024/01/13 11:20:10;;;;;;;22.33;11.47;;;;;3.50;101535.00;;;;5042073;28;20231;-70
2024/01/13 11:22:58;;;;;;;14.63;9.20;;;;;3.60;101544.00;;;;5044685;28;20367;-70
2024/01/13 11:25:45;;;;;;;22.23;10.47;;;;;3.60;101541.00;;;;5034332;28;20724;-71
2024/01/13 11:28:46;;;;;;;15.17;8.13;;;;;3.60;101536.00;;;;5049901;28;20733;-71
2024/01/13 11:31:34;;;;;;;19.03;9.43;;;;;3.60;101542.00;;;;5016226;28;20239;-71
2024/01/13 11:34:31;;;;;;;17.17;9.87;;;;;3.50;101536.00;;;;5038143;28;20248;-71
2024/01/13 11:37:20;;;;;;;17.10;8.67;;;;;3.50;101539.00;;;;5016190;28;20263;-70
2024/01/13 11:40:09;;;;;;;17.87;9.67;;;;;3.60;101547.00;;;;5045958;28;20224;-70
2024/01/13 11:43:03;;;;;;;15.10;8.37;;;;;3.60;101536.00;;;;5038989;28;20241;-70
2024/01/13 11:45:51;;;;;;;14.77;7.90;;;;;3.60;101530.00;;;;5041982;28;20236;-69
2024/01/13 11:48:43;;;;;;;15.77;9.20;;;;;3.50;101533.00;;;;5033347;28;20233;-69
2024/01/13 11:51:55;;;;;;;17.03;9.93;;;;;3.60;101527.00;;;;5042539;28;20240;-69
2024/01/13 11:54:44;;;;;;;19.13;9.40;;;;;3.60;101514.00;;;;5038603;28;20227;-70
2024/01/13 11:57:31;;;;;;;16.30;9.53;;;;;3.60;101517.00;;;;5049791;28;20749;-70
2024/01/13 12:00:17;;;;;;;12.43;8.67;;;;;3.60;101522.00;;;;5039484;28;20279;-70
2024/01/13 12:03:04;;;;;;;21.37;9.70;;;;;3.60;101517.00;;;;5052283;28;20252;-72
2024/01/13 12:05:51;;;;;;;19.60;9.97;;;;;3.60;101505.00;;;;5035080;28;20236;-72
2024/01/13 12:08:37;;;;;;;17.43;9.53;;;;;3.60;101499.00;;;;5038090;28;20283;-70
2024/01/13 12:11:25;;;;;;;19.93;9.90;;;;;3.70;101488.00;;;;5041983;28;20295;-70
2024/01/13 12:14:26;;;;;;;17.90;8.87;;;;;3.60;101484.00;;;;5050610;28;20224;-70
2024/01/13 12:17:16;;;;;;;26.03;13.77;;;;;3.70;101476.00;;;;5043171;28;20228;-69
2024/01/13 12:20:03;;;;;;;19.10;9.73;;;;;3.60;101473.00;;;;5041122;28;20307;-70
2024/01/13 12:22:50;;;;;;;40.07;16.80;;;;;3.60;101453.00;;;;5035515;28;20249;-69
2024/01/13 12:25:36;;;;;;;27.03;14.23;;;;;3.60;101450.00;;;;5043224;28;20228;-70
2024/01/13 12:28:25;;;;;;;18.27;9.97;;;;;3.60;101442.00;;;;5037424;28;20271;-72
2024/01/13 12:31:12;;;;;;;14.73;8.23;;;;;3.70;101450.00;;;;5030893;28;20236;-71
2024/01/13 12:34:08;;;;;;;18.63;9.20;;;;;3.70;101442.00;;;;5039148;28;20231;-71
2024/01/13 12:36:56;;;;;;;10.73;6.93;;;;;3.60;101447.00;;;;5034125;28;20233;-69
2024/01/13 12:39:43;;;;;;;13.13;7.77;;;;;3.60;101456.00;;;;5036363;28;20282;-71
2024/01/13 12:42:29;;;;;;;16.37;9.80;;;;;3.60;101443.00;;;;5040308;28;20240;-71
2024/01/13 12:45:18;;;;;;;17.77;10.10;;;;;3.60;101442.00;;;;5035589;28;20278;-68
2024/01/13 12:48:06;;;;;;;15.73;8.97;;;;;3.60;101434.00;;;;5042547;28;20368;-69
2024/01/13 12:50:52;;;;;;;17.10;9.17;;;;;3.60;101434.00;;;;5030798;28;20256;-69
2024/01/13 12:53:40;;;;;;;15.17;8.43;;;;;3.70;101441.00;;;;5037008;28;20674;-69
2024/01/13 12:56:26;;;;;;;18.10;9.47;;;;;3.60;101448.00;;;;5048477;28;20308;-69
2024/01/13 12:59:13;;;;;;;18.57;9.53;;;;;3.60;101442.00;;;;5041420;28;20228;-71
2024/01/13 13:02:00;;;;;;;15.70;8.83;;;;;3.70;101443.00;;;;5045240;28;20236;-70
2024/01/13 13:04:46;;;;;;;16.03;8.23;;;;;3.60;101443.00;;;;5037101;28;20777;-71
2024/01/13 13:07:43;;;;;;;15.27;8.57;;;;;3.60;101444.00;;;;5038461;28;20439;-71
2024/01/13 13:10:30;;;;;;;14.90;7.50;;;;;3.70;101429.00;;;;5040940;28;20283;-71
2024/01/13 13:13:16;;;;;;;18.73;9.10;;;;;3.70;101424.00;;;;5045492;28;20280;-71
2024/01/13 13:16:04;;;;;;;17.20;8.07;;;;;3.60;101425.00;;;;5042596;28;20723;-70
2024/01/13 13:18:52;;;;;;;14.83;8.27;;;;;3.60;101427.00;;;;5041272;28;20260;-70
2024/01/13 13:21:40;;;;;;;16.67;8.23;;;;;3.70;101415.00;;;;5042965;28;20326;-69
2024/01/13 13:24:26;;;;;;;12.60;7.57;;;;;3.70;101411.00;;;;5038523;28;20229;-70
2024/01/13 13:27:13;;;;;;;17.73;7.77;;;;;3.70;101420.00;;;;5038978;28;20771;-69
2024/01/13 13:29:59;;;;;;;14.93;7.10;;;;;3.70;101410.00;;;;5037880;28;20225;-69
2024/01/13 13:32:46;;;;;;;15.67;9.07;;;;;3.70;101403.00;;;;5044240;28;20252;-69
2024/01/13 13:35:34;;;;;;;19.90;8.03;;;;;3.70;101390.00;;;;5040866;28;20611;-69
2024/01/13 13:38:20;;;;;;;14.13;7.27;;;;;3.80;101395.00;;;;5036819;28;20237;-69
2024/01/13 13:41:07;;;;;;;14.57;8.03;;;;;3.80;101401.00;;;;5049592;28;20859;-68
2024/01/13 13:43:53;;;;;;;13.57;6.63;;;;;3.80;101390.00;;;;5040626;28;20228;-69
2024/01/13 13:46:39;;;;;;;16.87;7.80;;;;;3.70;101396.00;;;;5037161;28;20229;-69
2024/01/13 13:49:26;;;;;;;13.57;7.73;;;;;3.70;101395.00;;;;5032656;28;20233;-69
2024/01/13 13:52:14;;;;;;;16.73;8.20;;;;;3.70;101393.00;;;;5044415;28;20758;-70
2024/01/13 13:55:00;;;;;;;13.73;6.73;;;;;3.70;101402.00;;;;5052638;28;20375;-69
2024/01/13 13:57:57;;;;;;;16.57;8.70;;;;;3.70;101393.00;;;;5037386;28;20248;-69
2024/01/13 14:00:44;;;;;;;16.47;7.83;;;;;3.60;101388.00;;;;5044748;28;20228;-69
2024/01/13 14:03:33;;;;;;;14.47;8.07;;;;;3.60;101379.00;;;;5036480;28;20232;-69
2024/01/13 14:06:20;;;;;;;15.83;7.87;;;;;3.70;101377.00;;;;5031828;28;20243;-69
2024/01/13 14:09:07;;;;;;;18.90;8.07;;;;;3.70;101374.00;;;;5036455;28;20740;-70
2024/01/13 14:11:54;;;;;;;16.87;7.97;;;;;3.70;101364.00;;;;5042986;28;20809;-70
2024/01/13 14:14:40;;;;;;;15.90;7.83;;;;;3.80;101361.00;;;;5041835;28;20232;-69
2024/01/13 14:17:27;;;;;;;17.93;8.50;;;;;3.80;101348.00;;;;5039407;28;20283;-69
2024/01/13 14:20:13;;;;;;;16.53;8.30;;;;;3.80;101349.00;;;;5041507;28;20227;-69
2024/01/13 14:23:06;;;;;;;15.80;8.13;;;;;3.70;101343.00;;;;5038161;28;20658;-70
2024/01/13 14:25:54;;;;;;;11.43;7.20;;;;;3.70;101345.00;;;;5048275;28;20232;-67
2024/01/13 14:28:40;;;;;;;14.10;8.10;;;;;3.70;101345.00;;;;5039933;28;20754;-69
2024/01/13 14:31:27;;;;;;;16.53;8.07;;;;;3.70;101339.00;;;;5041728;28;21067;-71
2024/01/13 14:34:16;;;;;;;15.13;7.37;;;;;3.80;101334.00;;;;5044705;28;20221;-72